sensor_id;sensor_type;location;lat;lon;timestamp;pressure;altitude;pressure_sealevel;temperature;humidity
25510;BME280;13413;52.336;21.200;2023-01-31T00:01:14;99153.35;;;6.19;66.45
25510;BME280;13413;52.336;21.200;2023-01-31T00:04:10;99150.94;;;6.28;66.47
25510;BME280;13413;52.336;21.200;2023-01-31T00:07:04;99155.80;;;6.33;66.40
25510;BME280;13413;52.336;21.200;2023-01-31T00:09:58;99156.68;;;6.35;66.32
25510;BME280;13413;52.336;21.200;2023-01-31T00:12:52;99158.36;;;6.28;66.42
25510;BME280;13413;52.336;21.200;2023-01-31T00:15:47;99163.02;;;6.28;66.38
25510;BME280;13413;52.336;21.200;2023-01-31T00:18:41;99160.21;;;6.25;66.47
25510;BME280;13413;52.336;21.200;2023-01-31T00:21:35;99164.39;;;6.26;66.47
25510;BME280;13413;52.336;21.200;2023-01-31T00:24:29;99168.50;;;6.34;66.26
25510;BME280;13413;52.336;21.200;2023-01-31T00:27:23;99166.88;;;6.27;66.42
25510;BME280;13413;52.336;21.200;2023-01-31T00:30:17;99174.72;;;6.33;66.56
25510;BME280;13413;52.336;21.200;2023-01-31T00:33:10;99180.48;;;6.38;66.45
25510;BME280;13413;52.336;21.200;2023-01-31T00:41:47;99189.26;;;6.32;66.52
25510;BME280;13413;52.336;21.200;2023-01-31T00:44:41;99189.31;;;6.33;66.59
25510;BME280;13413;52.336;21.200;2023-01-31T00:47:35;99197.50;;;6.37;66.45
25510;BME280;13413;52.336;21.200;2023-01-31T00:50:29;99201.70;;;6.43;66.33
25510;BME280;13413;52.336;21.200;2023-01-31T00:53:23;99202.83;;;6.42;66.32
25510;BME280;13413;52.336;21.200;2023-01-31T00:56:19;99207.23;;;6.43;66.24
25510;BME280;13413;52.336;21.200;2023-01-31T00:59:14;99199.78;;;6.37;66.38
25510;BME280;13413;52.336;21.200;2023-01-31T01:02:08;99210.73;;;6.40;66.44
25510;BME280;13413;52.336;21.200;2023-01-31T01:05:02;99219.79;;;6.38;66.41
25510;BME280;13413;52.336;21.200;2023-01-31T01:07:56;99222.25;;;6.43;66.38
25510;BME280;13413;52.336;21.200;2023-01-31T01:10:50;99219.02;;;6.43;66.34
25510;BME280;13413;52.336;21.200;2023-01-31T01:13:44;99227.15;;;6.47;66.31
25510;BME280;13413;52.336;21.200;2023-01-31T01:16:52;99232.02;;;6.53;66.26
25510;BME280;13413;52.336;21.200;2023-01-31T01:19:46;99235.48;;;6.51;66.24
25510;BME280;13413;52.336;21.200;2023-01-31T01:22:56;99235.92;;;6.54;66.24
25510;BME280;13413;52.336;21.200;2023-01-31T01:25:51;99232.44;;;6.50;66.19
25510;BME280;13413;52.336;21.200;2023-01-31T01:28:45;99228.52;;;6.41;66.35
25510;BME280;13413;52.336;21.200;2023-01-31T01:34:33;99229.20;;;6.48;66.26
25510;BME280;13413;52.336;21.200;2023-01-31T01:37:27;99241.32;;;6.56;66.23
25510;BME280;13413;52.336;21.200;2023-01-31T01:40:21;99246.80;;;6.57;66.21
25510;BME280;13413;52.336;21.200;2023-01-31T01:43:15;99246.96;;;6.57;66.18
25510;BME280;13413;52.336;21.200;2023-01-31T01:46:11;99249.18;;;6.59;66.20
25510;BME280;13413;52.336;21.200;2023-01-31T01:49:14;99243.37;;;6.58;66.09
25510;BME280;13413;52.336;21.200;2023-01-31T01:52:12;99254.81;;;6.63;66.08
25510;BME280;13413;52.336;21.200;2023-01-31T01:55:15;99258.42;;;6.69;65.98
25510;BME280;13413;52.336;21.200;2023-01-31T01:58:15;99258.08;;;6.70;65.90
25510;BME280;13413;52.336;21.200;2023-01-31T02:01:12;99261.20;;;6.66;65.89
25510;BME280;13413;52.336;21.200;2023-01-31T02:04:08;99266.67;;;6.63;65.86
25510;BME280;13413;52.336;21.200;2023-01-31T02:07:03;99270.92;;;6.59;65.89
25510;BME280;13413;52.336;21.200;2023-01-31T02:10:03;99270.13;;;6.63;65.86
25510;BME280;13413;52.336;21.200;2023-01-31T02:13:00;99281.29;;;6.64;65.95
25510;BME280;13413;52.336;21.200;2023-01-31T02:15:56;99288.52;;;6.67;65.88
25510;BME280;13413;52.336;21.200;2023-01-31T02:18:50;99297.01;;;6.66;65.91
25510;BME280;13413;52.336;21.200;2023-01-31T02:21:56;99304.48;;;6.64;65.86
25510;BME280;13413;52.336;21.200;2023-01-31T02:25:29;99309.40;;;6.61;65.88
25510;BME280;13413;52.336;21.200;2023-01-31T02:28:43;99317.06;;;6.58;65.88
25510;BME280;13413;52.336;21.200;2023-01-31T02:32:17;99317.98;;;6.64;65.93
25510;BME280;13413;52.336;21.200;2023-01-31T02:35:21;99320.45;;;6.68;65.86
25510;BME280;13413;52.336;21.200;2023-01-31T02:38:29;99330.46;;;6.71;65.89
25510;BME280;13413;52.336;21.200;2023-01-31T02:41:31;99329.31;;;6.72;65.78
25510;BME280;13413;52.336;21.200;2023-01-31T02:44:31;99333.03;;;6.69;65.83
25510;BME280;13413;52.336;21.200;2023-01-31T02:47:40;99340.77;;;6.67;65.86
25510;BME280;13413;52.336;21.200;2023-01-31T02:50:40;99341.36;;;6.71;65.76
25510;BME280;13413;52.336;21.200;2023-01-31T02:53:41;99347.70;;;6.71;65.83
25510;BME280;13413;52.336;21.200;2023-01-31T03:00:02;99354.52;;;6.80;65.70
25510;BME280;13413;52.336;21.200;2023-01-31T03:09:56;99375.93;;;6.79;65.47
25510;BME280;13413;52.336;21.200;2023-01-31T03:13:01;99379.36;;;6.80;65.47
25510;BME280;13413;52.336;21.200;2023-01-31T03:16:04;99383.16;;;6.82;65.36
25510;BME280;13413;52.336;21.200;2023-01-31T03:19:07;99395.98;;;6.82;65.33
25510;BME280;13413;52.336;21.200;2023-01-31T03:22:06;99401.27;;;6.83;65.34
25510;BME280;13413;52.336;21.200;2023-01-31T03:25:04;99410.25;;;6.86;65.22
25510;BME280;13413;52.336;21.200;2023-01-31T03:28:02;99409.67;;;6.85;65.17
25510;BME280;13413;52.336;21.200;2023-01-31T03:31:02;99417.25;;;6.85;65.13
25510;BME280;13413;52.336;21.200;2023-01-31T03:34:01;99421.23;;;6.90;65.02
25510;BME280;13413;52.336;21.200;2023-01-31T03:36:58;99423.23;;;6.92;64.84
25510;BME280;13413;52.336;21.200;2023-01-31T03:39:58;99426.96;;;6.91;64.74
25510;BME280;13413;52.336;21.200;2023-01-31T03:42:56;99435.41;;;6.92;64.78
25510;BME280;13413;52.336;21.200;2023-01-31T03:45:54;99436.64;;;6.92;64.72
25510;BME280;13413;52.336;21.200;2023-01-31T03:48:52;99430.21;;;6.88;64.67
25510;BME280;13413;52.336;21.200;2023-01-31T03:51:50;99433.02;;;6.91;64.42
25510;BME280;13413;52.336;21.200;2023-01-31T03:54:48;99431.14;;;6.94;64.53
25510;BME280;13413;52.336;21.200;2023-01-31T03:57:50;99440.14;;;6.95;64.35
25510;BME280;13413;52.336;21.200;2023-01-31T04:00:47;99444.17;;;6.93;64.25
25510;BME280;13413;52.336;21.200;2023-01-31T04:03:46;99440.89;;;6.96;64.15
25510;BME280;13413;52.336;21.200;2023-01-31T04:06:42;99443.73;;;6.96;64.10
25510;BME280;13413;52.336;21.200;2023-01-31T04:09:37;99444.27;;;6.88;63.90
25510;BME280;13413;52.336;21.200;2023-01-31T04:12:35;99451.80;;;6.95;63.93
25510;BME280;13413;52.336;21.200;2023-01-31T04:15:30;99453.94;;;6.91;63.83
25510;BME280;13413;52.336;21.200;2023-01-31T04:18:24;99453.02;;;6.95;63.91
25510;BME280;13413;52.336;21.200;2023-01-31T04:21:18;99455.98;;;6.96;63.94
25510;BME280;13413;52.336;21.200;2023-01-31T04:24:12;99466.75;;;6.91;63.87
25510;BME280;13413;52.336;21.200;2023-01-31T04:27:08;99469.52;;;6.89;63.69
25510;BME280;13413;52.336;21.200;2023-01-31T04:30:02;99468.84;;;6.90;63.79
25510;BME280;13413;52.336;21.200;2023-01-31T04:32:57;99472.54;;;6.87;63.63
25510;BME280;13413;52.336;21.200;2023-01-31T04:35:52;99479.23;;;6.82;63.37
25510;BME280;13413;52.336;21.200;2023-01-31T04:38:47;99486.59;;;6.83;63.55
25510;BME280;13413;52.336;21.200;2023-01-31T04:41:41;99487.31;;;6.87;63.46
25510;BME280;13413;52.336;21.200;2023-01-31T04:44:36;99489.56;;;6.78;63.25
25510;BME280;13413;52.336;21.200;2023-01-31T04:47:30;99491.61;;;6.75;63.26
25510;BME280;13413;52.336;21.200;2023-01-31T04:50:25;99500.15;;;6.67;63.30
25510;BME280;13413;52.336;21.200;2023-01-31T04:53:19;99502.38;;;6.66;63.28
25510;BME280;13413;52.336;21.200;2023-01-31T04:56:13;99507.98;;;6.63;63.18
25510;BME280;13413;52.336;21.200;2023-01-31T04:59:07;99510.55;;;6.60;63.28
25510;BME280;13413;52.336;21.200;2023-01-31T05:02:01;99510.79;;;6.52;63.31
25510;BME280;13413;52.336;21.200;2023-01-31T05:04:56;99513.26;;;6.51;63.27
25510;BME280;13413;52.336;21.200;2023-01-31T05:07:50;99514.29;;;6.47;63.21
25510;BME280;13413;52.336;21.200;2023-01-31T05:10:44;99518.41;;;6.45;63.19
25510;BME280;13413;52.336;21.200;2023-01-31T05:19:25;99534.02;;;6.36;63.27
25510;BME280;13413;52.336;21.200;2023-01-31T05:22:19;99541.52;;;6.34;63.29
25510;BME280;13413;52.336;21.200;2023-01-31T05:25:13;99546.02;;;6.37;63.24
25510;BME280;13413;52.336;21.200;2023-01-31T05:28:07;99550.95;;;6.30;63.13
25510;BME280;13413;52.336;21.200;2023-01-31T05:31:04;99559.75;;;6.27;63.19
25510;BME280;13413;52.336;21.200;2023-01-31T05:33:58;99568.31;;;6.23;63.16
25510;BME280;13413;52.336;21.200;2023-01-31T05:36:52;99572.28;;;6.26;63.20
25510;BME280;13413;52.336;21.200;2023-01-31T05:39:46;99578.27;;;6.29;63.07
25510;BME280;13413;52.336;21.200;2023-01-31T05:42:40;99586.56;;;6.29;62.98
25510;BME280;13413;52.336;21.200;2023-01-31T05:45:34;99589.46;;;6.28;62.96
25510;BME280;13413;52.336;21.200;2023-01-31T05:48:28;99593.58;;;6.29;62.80
25510;BME280;13413;52.336;21.200;2023-01-31T05:51:22;99593.54;;;6.29;62.69
25510;BME280;13413;52.336;21.200;2023-01-31T05:54:16;99598.77;;;6.33;62.72
25510;BME280;13413;52.336;21.200;2023-01-31T05:57:10;99607.32;;;6.38;62.55
25510;BME280;13413;52.336;21.200;2023-01-31T06:00:06;99612.70;;;6.40;62.56
25510;BME280;13413;52.336;21.200;2023-01-31T06:03:00;99610.55;;;6.40;62.46
25510;BME280;13413;52.336;21.200;2023-01-31T06:05:55;99611.27;;;6.37;62.41
25510;BME280;13413;52.336;21.200;2023-01-31T06:08:49;99613.77;;;6.37;62.51
25510;BME280;13413;52.336;21.200;2023-01-31T06:11:43;99619.84;;;6.36;62.34
25510;BME280;13413;52.336;21.200;2023-01-31T06:14:37;99624.15;;;6.38;62.35
25510;BME280;13413;52.336;21.200;2023-01-31T06:17:31;99630.44;;;6.38;62.12
25510;BME280;13413;52.336;21.200;2023-01-31T06:20:26;99637.83;;;6.40;62.25
25510;BME280;13413;52.336;21.200;2023-01-31T06:23:19;99644.29;;;6.42;62.06
25510;BME280;13413;52.336;21.200;2023-01-31T06:26:13;99654.17;;;6.44;62.16
25510;BME280;13413;52.336;21.200;2023-01-31T06:29:08;99665.23;;;6.43;62.00
25510;BME280;13413;52.336;21.200;2023-01-31T06:32:00;99668.19;;;6.42;61.92
25510;BME280;13413;52.336;21.200;2023-01-31T06:34:54;99674.32;;;6.45;61.90
25510;BME280;13413;52.336;21.200;2023-01-31T06:37:48;99683.15;;;6.48;61.70
25510;BME280;13413;52.336;21.200;2023-01-31T06:40:42;99679.52;;;6.52;61.74
25510;BME280;13413;52.336;21.200;2023-01-31T06:43:36;99682.02;;;6.55;61.58
25510;BME280;13413;52.336;21.200;2023-01-31T06:46:29;99688.80;;;6.59;61.63
25510;BME280;13413;52.336;21.200;2023-01-31T06:49:23;99694.07;;;6.58;61.36
25510;BME280;13413;52.336;21.200;2023-01-31T06:52:17;99699.14;;;6.58;61.45
25510;BME280;13413;52.336;21.200;2023-01-31T06:55:11;99696.77;;;6.57;61.32
25510;BME280;13413;52.336;21.200;2023-01-31T06:58:05;99698.54;;;6.61;61.15
25510;BME280;13413;52.336;21.200;2023-01-31T07:01:05;99703.89;;;6.61;61.04
25510;BME280;13413;52.336;21.200;2023-01-31T07:03:58;99705.89;;;6.63;61.24
25510;BME280;13413;52.336;21.200;2023-01-31T07:06:52;99713.30;;;6.66;61.12
25510;BME280;13413;52.336;21.200;2023-01-31T07:09:46;99714.25;;;6.67;61.13
25510;BME280;13413;52.336;21.200;2023-01-31T07:13:01;99720.70;;;6.68;61.11
25510;BME280;13413;52.336;21.200;2023-01-31T07:15:55;99728.91;;;6.68;60.93
25510;BME280;13413;52.336;21.200;2023-01-31T07:18:52;99740.65;;;6.65;60.96
25510;BME280;13413;52.336;21.200;2023-01-31T07:21:46;99742.55;;;6.62;60.98
25510;BME280;13413;52.336;21.200;2023-01-31T07:24:40;99746.63;;;6.67;61.01
25510;BME280;13413;52.336;21.200;2023-01-31T07:27:32;99753.58;;;6.67;60.93
25510;BME280;13413;52.336;21.200;2023-01-31T07:36:05;99762.54;;;6.64;60.66
25510;BME280;13413;52.336;21.200;2023-01-31T07:38:59;99767.52;;;6.64;60.59
25510;BME280;13413;52.336;21.200;2023-01-31T07:41:54;99772.23;;;6.71;60.70
25510;BME280;13413;52.336;21.200;2023-01-31T07:44:46;99772.13;;;6.73;60.58
25510;BME280;13413;52.336;21.200;2023-01-31T07:47:40;99778.06;;;6.75;60.69
25510;BME280;13413;52.336;21.200;2023-01-31T07:50:34;99779.06;;;6.78;60.66
25510;BME280;13413;52.336;21.200;2023-01-31T07:53:30;99782.54;;;6.71;60.33
25510;BME280;13413;52.336;21.200;2023-01-31T07:56:24;99787.02;;;6.70;60.47
25510;BME280;13413;52.336;21.200;2023-01-31T07:59:18;99794.09;;;6.76;60.39
25510;BME280;13413;52.336;21.200;2023-01-31T08:02:15;99800.52;;;6.82;60.28
25510;BME280;13413;52.336;21.200;2023-01-31T08:05:10;99804.61;;;6.83;60.16
25510;BME280;13413;52.336;21.200;2023-01-31T08:08:05;99807.25;;;6.81;59.94
25510;BME280;13413;52.336;21.200;2023-01-31T08:10:59;99815.96;;;6.80;60.00
25510;BME280;13413;52.336;21.200;2023-01-31T08:13:52;99819.44;;;6.82;59.92
25510;BME280;13413;52.336;21.200;2023-01-31T08:16:46;99827.66;;;6.78;59.60
25510;BME280;13413;52.336;21.200;2023-01-31T08:19:41;99835.05;;;6.79;59.69
25510;BME280;13413;52.336;21.200;2023-01-31T08:22:34;99834.79;;;6.77;59.59
25510;BME280;13413;52.336;21.200;2023-01-31T08:25:29;99840.00;;;6.90;59.58
25510;BME280;13413;52.336;21.200;2023-01-31T08:28:23;99846.36;;;6.92;59.30
25510;BME280;13413;52.336;21.200;2023-01-31T08:31:19;99850.14;;;6.90;59.33
25510;BME280;13413;52.336;21.200;2023-01-31T08:34:13;99850.84;;;6.97;59.36
25510;BME280;13413;52.336;21.200;2023-01-31T08:37:08;99855.15;;;6.96;59.06
25510;BME280;13413;52.336;21.200;2023-01-31T08:40:01;99859.81;;;6.99;58.97
25510;BME280;13413;52.336;21.200;2023-01-31T08:45:49;99865.17;;;7.03;58.67
25510;BME280;13413;52.336;21.200;2023-01-31T08:48:43;99870.81;;;7.01;58.51
25510;BME280;13413;52.336;21.200;2023-01-31T08:51:37;99870.55;;;7.04;58.63
25510;BME280;13413;52.336;21.200;2023-01-31T08:54:31;99873.09;;;7.03;58.39
25510;BME280;13413;52.336;21.200;2023-01-31T08:57:25;99877.31;;;7.01;58.03
25510;BME280;13413;52.336;21.200;2023-01-31T09:00:21;99871.19;;;7.01;58.14
25510;BME280;13413;52.336;21.200;2023-01-31T09:03:16;99877.18;;;7.07;58.04
25510;BME280;13413;52.336;21.200;2023-01-31T09:06:10;99879.39;;;7.10;58.00
25510;BME280;13413;52.336;21.200;2023-01-31T09:09:06;99881.50;;;7.13;57.89
25510;BME280;13413;52.336;21.200;2023-01-31T09:14:55;99885.81;;;7.12;57.52
25510;BME280;13413;52.336;21.200;2023-01-31T09:17:49;99887.30;;;7.21;57.86
25510;BME280;13413;52.336;21.200;2023-01-31T09:20:42;99886.94;;;7.24;57.57
25510;BME280;13413;52.336;21.200;2023-01-31T09:23:37;99891.05;;;7.27;57.78
25510;BME280;13413;52.336;21.200;2023-01-31T09:26:30;99887.98;;;7.31;57.80
25510;BME280;13413;52.336;21.200;2023-01-31T09:29:24;99895.83;;;7.28;57.08
25510;BME280;13413;52.336;21.200;2023-01-31T09:32:17;99894.23;;;7.22;57.24
25510;BME280;13413;52.336;21.200;2023-01-31T09:35:12;99898.77;;;7.27;57.40
25510;BME280;13413;52.336;21.200;2023-01-31T09:38:05;99897.95;;;7.21;56.86
25510;BME280;13413;52.336;21.200;2023-01-31T09:41:02;99897.28;;;7.26;56.99
25510;BME280;13413;52.336;21.200;2023-01-31T09:43:59;99900.48;;;7.29;56.91
25510;BME280;13413;52.336;21.200;2023-01-31T09:46:53;99902.10;;;7.33;57.01
25510;BME280;13413;52.336;21.200;2023-01-31T09:56:13;99910.47;;;7.34;56.92
25510;BME280;13413;52.336;21.200;2023-01-31T09:59:15;99911.16;;;7.24;56.38
25510;BME280;13413;52.336;21.200;2023-01-31T10:05:39;99911.46;;;7.27;56.19
25510;BME280;13413;52.336;21.200;2023-01-31T10:08:45;99912.19;;;7.25;56.24
25510;BME280;13413;52.336;21.200;2023-01-31T10:11:43;99908.49;;;7.33;56.17
25510;BME280;13413;52.336;21.200;2023-01-31T10:14:44;99907.07;;;7.31;55.99
25510;BME280;13413;52.336;21.200;2023-01-31T10:17:42;99908.30;;;7.33;56.03
25510;BME280;13413;52.336;21.200;2023-01-31T10:20:41;99912.22;;;7.37;55.80
25510;BME280;13413;52.336;21.200;2023-01-31T10:23:40;99911.78;;;7.36;55.76
25510;BME280;13413;52.336;21.200;2023-01-31T10:26:38;99911.77;;;7.35;55.89
25510;BME280;13413;52.336;21.200;2023-01-31T10:29:36;99918.16;;;7.37;55.62
25510;BME280;13413;52.336;21.200;2023-01-31T10:32:36;99915.25;;;7.31;55.60
25510;BME280;13413;52.336;21.200;2023-01-31T10:35:37;99914.87;;;7.26;55.22
25510;BME280;13413;52.336;21.200;2023-01-31T10:38:36;99911.20;;;7.34;55.35
25510;BME280;13413;52.336;21.200;2023-01-31T10:41:43;99912.71;;;7.33;55.25
25510;BME280;13413;52.336;21.200;2023-01-31T10:44:48;99912.62;;;7.35;55.25
25510;BME280;13413;52.336;21.200;2023-01-31T10:47:50;99915.05;;;7.34;55.38
25510;BME280;13413;52.336;21.200;2023-01-31T10:50:53;99907.64;;;7.31;55.10
25510;BME280;13413;52.336;21.200;2023-01-31T10:54:02;99913.23;;;7.34;55.18
25510;BME280;13413;52.336;21.200;2023-01-31T10:56:59;99915.13;;;7.30;54.95
25510;BME280;13413;52.336;21.200;2023-01-31T10:59:55;99913.80;;;7.34;55.09
25510;BME280;13413;52.336;21.200;2023-01-31T11:02:49;99910.13;;;7.40;55.26
25510;BME280;13413;52.336;21.200;2023-01-31T11:05:49;99911.85;;;7.38;55.07
25510;BME280;13413;52.336;21.200;2023-01-31T11:08:46;99912.19;;;7.31;54.82
25510;BME280;13413;52.336;21.200;2023-01-31T11:11:54;99902.80;;;7.30;54.92
25510;BME280;13413;52.336;21.200;2023-01-31T11:15:05;99905.19;;;7.34;55.03
25510;BME280;13413;52.336;21.200;2023-01-31T11:18:01;99906.52;;;7.41;55.11
25510;BME280;13413;52.336;21.200;2023-01-31T11:20:57;99910.82;;;7.47;55.23
25510;BME280;13413;52.336;21.200;2023-01-31T11:23:54;99913.30;;;7.53;55.10
25510;BME280;13413;52.336;21.200;2023-01-31T11:26:54;99916.17;;;7.52;55.01
25510;BME280;13413;52.336;21.200;2023-01-31T11:29:50;99920.00;;;7.55;54.83
25510;BME280;13413;52.336;21.200;2023-01-31T11:32:45;99922.16;;;7.56;54.61
25510;BME280;13413;52.336;21.200;2023-01-31T11:35:39;99921.70;;;7.57;54.41
25510;BME280;13413;52.336;21.200;2023-01-31T11:38:44;99921.64;;;7.61;54.22
25510;BME280;13413;52.336;21.200;2023-01-31T11:41:41;99925.08;;;7.65;53.89
25510;BME280;13413;52.336;21.200;2023-01-31T11:44:36;99922.72;;;7.55;53.59
25510;BME280;13413;52.336;21.200;2023-01-31T11:47:38;99927.66;;;7.59;53.43
25510;BME280;13413;52.336;21.200;2023-01-31T11:50:38;99923.48;;;7.62;53.39
25510;BME280;13413;52.336;21.200;2023-01-31T11:53:38;99917.83;;;7.67;53.30
25510;BME280;13413;52.336;21.200;2023-01-31T11:56:38;99921.54;;;7.77;52.72
25510;BME280;13413;52.336;21.200;2023-01-31T11:59:35;99919.92;;;8.12;52.81
25510;BME280;13413;52.336;21.200;2023-01-31T12:02:38;99914.14;;;8.26;52.10
25510;BME280;13413;52.336;21.200;2023-01-31T12:05:50;99913.15;;;7.93;51.09
25510;BME280;13413;52.336;21.200;2023-01-31T12:08:43;99907.29;;;7.76;50.97
25510;BME280;13413;52.336;21.200;2023-01-31T12:16:34;99902.64;;;7.86;51.50
25510;BME280;13413;52.336;21.200;2023-01-31T12:19:37;99901.54;;;7.82;51.28
25510;BME280;13413;52.336;21.200;2023-01-31T12:22:38;99898.90;;;7.74;51.45
25510;BME280;13413;52.336;21.200;2023-01-31T12:25:45;99902.86;;;7.81;51.62
25510;BME280;13413;52.336;21.200;2023-01-31T12:28:55;99902.33;;;7.95;51.36
25510;BME280;13413;52.336;21.200;2023-01-31T12:32:05;99898.27;;;8.53;51.25
25510;BME280;13413;52.336;21.200;2023-01-31T12:35:27;99894.10;;;8.72;50.12
25510;BME280;13413;52.336;21.200;2023-01-31T12:38:40;99889.02;;;8.92;49.70
25510;BME280;13413;52.336;21.200;2023-01-31T12:41:40;99888.67;;;8.83;49.74
25510;BME280;13413;52.336;21.200;2023-01-31T12:44:44;99885.51;;;8.74;48.87
25510;BME280;13413;52.336;21.200;2023-01-31T12:50:55;99892.43;;;8.99;49.59
25510;BME280;13413;52.336;21.200;2023-01-31T12:54:01;99887.25;;;8.71;48.85
25510;BME280;13413;52.336;21.200;2023-01-31T12:57:13;99891.38;;;8.39;48.93
25510;BME280;13413;52.336;21.200;2023-01-31T13:00:21;99884.89;;;8.22;48.98
25510;BME280;13413;52.336;21.200;2023-01-31T13:03:33;99885.94;;;8.08;49.05
25510;BME280;13413;52.336;21.200;2023-01-31T13:06:35;99889.58;;;7.96;48.69
25510;BME280;13413;52.336;21.200;2023-01-31T13:09:31;99893.50;;;7.89;48.49
25510;BME280;13413;52.336;21.200;2023-01-31T13:12:29;99886.00;;;7.77;48.58
25510;BME280;13413;52.336;21.200;2023-01-31T13:15:29;99882.21;;;7.75;48.57
25510;BME280;13413;52.336;21.200;2023-01-31T13:18:30;99880.04;;;7.76;48.25
25510;BME280;13413;52.336;21.200;2023-01-31T13:21:29;99876.27;;;7.87;48.40
25510;BME280;13413;52.336;21.200;2023-01-31T13:24:27;99871.81;;;7.86;48.32
25510;BME280;13413;52.336;21.200;2023-01-31T13:27:28;99872.45;;;7.71;48.26
25510;BME280;13413;52.336;21.200;2023-01-31T13:30:32;99868.36;;;7.68;48.45
25510;BME280;13413;52.336;21.200;2023-01-31T13:33:33;99863.11;;;7.71;48.75
25510;BME280;13413;52.336;21.200;2023-01-31T13:36:32;99865.79;;;7.71;48.54
25510;BME280;13413;52.336;21.200;2023-01-31T13:39:31;99856.83;;;7.77;48.83
25510;BME280;13413;52.336;21.200;2023-01-31T13:42:29;99858.36;;;7.92;48.38
25510;BME280;13413;52.336;21.200;2023-01-31T13:45:23;99861.98;;;7.95;47.83
25510;BME280;13413;52.336;21.200;2023-01-31T13:48:20;99854.45;;;8.04;47.70
25510;BME280;13413;52.336;21.200;2023-01-31T13:51:21;99858.94;;;7.98;47.54
25510;BME280;13413;52.336;21.200;2023-01-31T13:54:21;99857.74;;;7.99;47.68
25510;BME280;13413;52.336;21.200;2023-01-31T13:57:24;99857.20;;;7.92;47.79
25510;BME280;13413;52.336;21.200;2023-01-31T14:00:32;99868.66;;;7.84;47.57
25510;BME280;13413;52.336;21.200;2023-01-31T14:03:30;99868.57;;;7.80;47.81
25510;BME280;13413;52.336;21.200;2023-01-31T14:07:12;99874.33;;;7.78;47.70
25510;BME280;13413;52.336;21.200;2023-01-31T14:10:30;99875.02;;;7.70;47.73
25510;BME280;13413;52.336;21.200;2023-01-31T14:13:43;99875.95;;;7.68;48.02
25510;BME280;13413;52.336;21.200;2023-01-31T14:16:40;99875.12;;;7.58;48.08
25510;BME280;13413;52.336;21.200;2023-01-31T14:20:01;99878.14;;;7.47;48.13
25510;BME280;13413;52.336;21.200;2023-01-31T14:23:31;99873.61;;;7.50;48.55
25510;BME280;13413;52.336;21.200;2023-01-31T14:32:24;99862.06;;;7.54;48.81
25510;BME280;13413;52.336;21.200;2023-01-31T14:35:34;99865.99;;;7.50;48.92
25510;BME280;13413;52.336;21.200;2023-01-31T14:38:44;99873.29;;;7.48;48.73
25510;BME280;13413;52.336;21.200;2023-01-31T14:41:55;99874.84;;;7.48;48.77
25510;BME280;13413;52.336;21.200;2023-01-31T14:45:08;99877.26;;;7.39;48.75
25510;BME280;13413;52.336;21.200;2023-01-31T14:48:26;99873.65;;;7.35;48.76
25510;BME280;13413;52.336;21.200;2023-01-31T14:51:31;99870.58;;;7.31;48.88
25510;BME280;13413;52.336;21.200;2023-01-31T14:54:41;99870.58;;;7.26;48.90
25510;BME280;13413;52.336;21.200;2023-01-31T14:57:42;99862.61;;;7.26;48.95
25510;BME280;13413;52.336;21.200;2023-01-31T15:00:47;99863.29;;;7.25;49.05
25510;BME280;13413;52.336;21.200;2023-01-31T15:03:51;99857.65;;;7.25;49.02
25510;BME280;13413;52.336;21.200;2023-01-31T15:06:50;99855.17;;;7.23;49.12
25510;BME280;13413;52.336;21.200;2023-01-31T15:09:45;99853.84;;;7.08;49.26
25510;BME280;13413;52.336;21.200;2023-01-31T15:12:55;99852.06;;;7.14;49.34
25510;BME280;13413;52.336;21.200;2023-01-31T15:15:50;99854.20;;;7.13;49.41
25510;BME280;13413;52.336;21.200;2023-01-31T15:18:47;99850.85;;;7.05;49.40
25510;BME280;13413;52.336;21.200;2023-01-31T15:21:44;99849.69;;;7.05;49.48
25510;BME280;13413;52.336;21.200;2023-01-31T15:24:42;99850.90;;;7.00;49.53
25510;BME280;13413;52.336;21.200;2023-01-31T15:27:41;99850.02;;;6.93;49.67
25510;BME280;13413;52.336;21.200;2023-01-31T15:30:36;99850.87;;;6.94;49.59
25510;BME280;13413;52.336;21.200;2023-01-31T15:33:33;99849.71;;;6.96;49.65
25510;BME280;13413;52.336;21.200;2023-01-31T15:36:32;99854.20;;;6.94;49.67
25510;BME280;13413;52.336;21.200;2023-01-31T15:39:33;99852.33;;;6.96;49.76
25510;BME280;13413;52.336;21.200;2023-01-31T15:42:32;99854.21;;;6.97;49.64
25510;BME280;13413;52.336;21.200;2023-01-31T15:45:30;99853.94;;;6.90;49.68
25510;BME280;13413;52.336;21.200;2023-01-31T15:48:24;99849.79;;;6.89;49.78
25510;BME280;13413;52.336;21.200;2023-01-31T15:51:18;99847.19;;;6.85;49.83
25510;BME280;13413;52.336;21.200;2023-01-31T15:54:13;99845.63;;;6.84;50.04
25510;BME280;13413;52.336;21.200;2023-01-31T15:57:15;99838.45;;;6.74;50.15
25510;BME280;13413;52.336;21.200;2023-01-31T16:00:20;99841.54;;;6.76;50.24
25510;BME280;13413;52.336;21.200;2023-01-31T16:03:28;99847.63;;;6.76;50.26
25510;BME280;13413;52.336;21.200;2023-01-31T16:06:25;99848.65;;;6.75;50.21
25510;BME280;13413;52.336;21.200;2023-01-31T16:09:28;99851.81;;;6.78;50.27
25510;BME280;13413;52.336;21.200;2023-01-31T16:12:23;99853.79;;;6.76;50.24
25510;BME280;13413;52.336;21.200;2023-01-31T16:15:21;99852.95;;;6.76;50.30
25510;BME280;13413;52.336;21.200;2023-01-31T16:18:17;99852.61;;;6.66;50.24
25510;BME280;13413;52.336;21.200;2023-01-31T16:24:15;99845.56;;;6.65;50.42
25510;BME280;13413;52.336;21.200;2023-01-31T16:27:15;99847.39;;;6.59;50.56
25510;BME280;13413;52.336;21.200;2023-01-31T16:30:16;99849.35;;;6.56;50.64
25510;BME280;13413;52.336;21.200;2023-01-31T16:33:31;99845.44;;;6.53;50.89
25510;BME280;13413;52.336;21.200;2023-01-31T16:36:25;99843.51;;;6.49;51.19
25510;BME280;13413;52.336;21.200;2023-01-31T16:39:25;99845.55;;;6.47;51.26
25510;BME280;13413;52.336;21.200;2023-01-31T16:42:22;99848.31;;;6.47;51.39
25510;BME280;13413;52.336;21.200;2023-01-31T16:48:24;99833.98;;;6.46;51.79
25510;BME280;13413;52.336;21.200;2023-01-31T16:54:26;99830.13;;;6.41;52.13